createdAt,value
2019-01-28T00:02:04.666Z,89.40
2019-01-28T00:04:35.095Z,90.18
2019-01-28T00:07:05.640Z,90.71
2019-01-28T00:09:36.109Z,90.56
2019-01-28T00:12:06.904Z,90.48
2019-01-28T00:14:37.323Z,89.91
2019-01-28T00:17:08.665Z,89.64
2019-01-28T00:19:39.087Z,89.19
2019-01-28T00:22:09.507Z,89.14
2019-01-28T00:24:39.978Z,89.08
2019-01-28T00:27:10.446Z,88.94
2019-01-28T00:29:40.866Z,88.95
2019-01-28T00:32:11.337Z,89.23
2019-01-28T00:34:42.135Z,88.93
2019-01-28T00:37:14.131Z,88.60
2019-01-28T00:39:44.604Z,88.76
2019-01-28T00:42:15.437Z,88.28
2019-01-28T00:44:45.866Z,87.67
2019-01-28T00:47:16.320Z,87.72
2019-01-28T00:49:46.742Z,86.94
2019-01-28T00:52:18.155Z,86.71
2019-01-28T00:54:48.632Z,86.50
2019-01-28T00:57:19.062Z,86.18
2019-01-28T00:59:49.489Z,86.11
2019-01-28T01:02:19.962Z,85.66
2019-01-28T01:04:50.503Z,84.75
2019-01-28T01:07:22.538Z,85.16
2019-01-28T01:09:53.007Z,84.44
2019-01-28T01:12:23.765Z,85.01
2019-01-28T01:14:54.541Z,85.31
2019-01-28T01:17:25.022Z,84.71
2019-01-28T01:19:55.508Z,84.86
2019-01-28T01:22:26.306Z,84.87
2019-01-28T01:24:56.797Z,85.14
2019-01-28T01:27:27.228Z,84.51
2019-01-28T01:29:57.646Z,84.04
2019-01-28T01:32:29.416Z,83.67
2019-01-28T01:34:59.884Z,83.67
2019-01-28T01:37:30.258Z,83.53
2019-01-28T01:40:00.731Z,83.92
2019-01-28T01:42:31.157Z,84.42
2019-01-28T01:45:01.588Z,83.72
2019-01-28T01:47:32.054Z,84.06
2019-01-28T01:50:02.487Z,85.11
2019-01-28T01:52:32.902Z,84.15
2019-01-28T01:55:03.375Z,84.37
2019-01-28T01:57:34.248Z,84.37
2019-01-28T02:00:07.330Z,85.57
2019-01-28T02:02:37.794Z,85.81
2019-01-28T02:05:08.728Z,85.89
2019-01-28T02:07:39.434Z,85.23
2019-01-28T02:10:11.874Z,85.54
2019-01-28T02:12:42.402Z,84.74
2019-01-28T02:15:16.052Z,83.96
2019-01-28T02:17:47.115Z,83.77
2019-01-28T02:20:17.998Z,84.10
2019-01-28T02:22:48.820Z,83.78
2019-01-28T02:25:19.391Z,83.94
2019-01-28T02:27:50.084Z,84.35
2019-01-28T02:30:20.509Z,84.10
2019-01-28T02:32:50.990Z,84.67
2019-01-28T02:35:21.415Z,83.73
2019-01-28T02:37:51.842Z,83.77
2019-01-28T02:40:22.324Z,84.30
2019-01-28T02:42:52.765Z,84.52
2019-01-28T02:45:23.190Z,84.86
2019-01-28T02:47:53.670Z,84.97
2019-01-28T02:50:24.443Z,85.21
2019-01-28T02:52:54.866Z,84.89
2019-01-28T02:55:25.338Z,84.77
2019-01-28T02:57:55.921Z,84.60
2019-01-28T03:00:26.716Z,85.05
2019-01-28T03:02:57.195Z,85.48
2019-01-28T03:05:28.000Z,84.91
2019-01-28T03:07:58.715Z,85.55
2019-01-28T03:10:29.487Z,85.69
2019-01-28T03:13:00.278Z,85.49
2019-01-28T03:15:30.698Z,85.97
2019-01-28T03:18:01.176Z,85.96
2019-01-28T03:20:31.597Z,86.17
2019-01-28T03:23:02.029Z,85.80
2019-01-28T03:25:32.779Z,86.09
2019-01-28T03:28:03.213Z,85.39
2019-01-28T03:30:34.009Z,86.19
2019-01-28T03:33:04.529Z,86.22
2019-01-28T03:35:34.942Z,85.78
2019-01-28T03:38:05.385Z,85.94
2019-01-28T03:40:35.877Z,86.33
2019-01-28T03:43:06.320Z,86.04
2019-01-28T03:45:37.203Z,86.11
2019-01-28T03:48:07.683Z,85.61
2019-01-28T03:50:38.108Z,85.99
2019-01-28T03:53:08.616Z,86.10
2019-01-28T03:55:39.095Z,86.01
2019-01-28T03:58:10.235Z,85.45
2019-01-28T04:00:40.672Z,85.83
2019-01-28T04:03:11.147Z,85.89
2019-01-28T04:05:41.677Z,86.23
2019-01-28T04:08:13.116Z,86.10
2019-01-28T04:10:43.963Z,85.94
2019-01-28T04:13:14.438Z,86.48
2019-01-28T04:15:44.821Z,86.66
2019-01-28T04:18:15.538Z,86.52
2019-01-28T04:20:45.970Z,86.50
2019-01-28T04:23:16.390Z,86.37
2019-01-28T04:25:46.945Z,86.76
2019-01-28T04:28:17.372Z,86.67
2019-01-28T04:30:47.797Z,86.42
2019-01-28T04:33:18.275Z,86.72
2019-01-28T04:35:48.697Z,86.54
2019-01-28T04:38:19.121Z,85.88
2019-01-28T04:40:49.594Z,86.50
2019-01-28T04:43:20.018Z,86.46
2019-01-28T04:45:50.446Z,86.28
2019-01-28T04:48:20.916Z,86.03
2019-01-28T04:50:51.612Z,86.24
2019-01-28T04:53:22.039Z,86.25
2019-01-28T04:55:52.505Z,86.74
2019-01-28T04:58:23.361Z,86.16
2019-01-28T05:00:54.240Z,86.78
2019-01-28T05:03:24.715Z,86.25
2019-01-28T05:05:55.131Z,86.08
2019-01-28T05:08:25.555Z,86.36
2019-01-28T05:10:56.034Z,86.16
2019-01-28T05:13:26.459Z,86.06
2019-01-28T05:15:56.919Z,85.65
2019-01-28T05:18:27.618Z,85.40
2019-01-28T05:20:58.033Z,85.55
2019-01-28T05:23:28.496Z,85.26
2019-01-28T05:25:59.291Z,85.56
2019-01-28T05:28:29.771Z,86.00
2019-01-28T05:31:00.178Z,85.90
2019-01-28T05:33:30.599Z,85.75
2019-01-28T05:36:01.050Z,85.27
2019-01-28T05:38:31.470Z,85.08
2019-01-28T05:41:02.371Z,85.44
2019-01-28T05:43:32.794Z,85.47
2019-01-28T05:46:03.228Z,85.19
2019-01-28T05:48:33.842Z,85.49
2019-01-28T05:51:04.363Z,85.18
2019-01-28T05:53:35.103Z,85.62
2019-01-28T05:56:05.732Z,85.66
2019-01-28T05:58:36.516Z,85.79
2019-01-28T06:01:07.331Z,84.98
2019-01-28T06:03:37.770Z,85.18
2019-01-28T06:06:08.416Z,85.53
2019-01-28T06:08:38.835Z,85.03
2019-01-28T06:11:09.256Z,85.26
2019-01-28T06:13:39.705Z,84.92
2019-01-28T06:16:10.392Z,85.08
2019-01-28T06:18:40.846Z,85.39
2019-01-28T06:21:11.272Z,85.73
2019-01-28T06:23:41.691Z,85.83
2019-01-28T06:26:12.143Z,86.10
2019-01-28T06:28:43.085Z,85.54
2019-01-28T06:31:14.483Z,85.42
2019-01-28T06:33:44.883Z,85.94
2019-01-28T06:36:15.370Z,86.45
2019-01-28T06:38:45.852Z,86.28
2019-01-28T06:41:16.250Z,86.32
2019-01-28T06:43:46.720Z,86.56
2019-01-28T06:46:17.147Z,85.91
2019-01-28T06:48:47.573Z,85.82
2019-01-28T06:51:18.398Z,85.61
2019-01-28T06:53:49.248Z,85.54
2019-01-28T06:56:19.672Z,85.57
2019-01-28T06:58:50.447Z,85.73
2019-01-28T07:01:21.190Z,84.96
2019-01-28T07:03:51.973Z,85.52
2019-01-28T07:06:22.846Z,85.92
2019-01-28T07:08:53.544Z,85.56
2019-01-28T07:11:23.971Z,85.68
2019-01-28T07:13:54.440Z,84.77
2019-01-28T07:16:24.867Z,84.97
2019-01-28T07:18:55.288Z,84.84
2019-01-28T07:21:25.751Z,84.23
2019-01-28T07:23:56.271Z,84.74
2019-01-28T07:26:26.735Z,83.93
2019-01-28T07:28:57.535Z,83.96
2019-01-28T07:31:27.955Z,83.78
2019-01-28T07:33:58.518Z,83.67
2019-01-28T07:36:29.030Z,83.37
2019-01-28T07:38:59.499Z,83.94
2019-01-28T07:41:29.919Z,82.78
2019-01-28T07:44:01.134Z,82.70
2019-01-28T07:46:31.587Z,83.14
2019-01-28T07:49:02.012Z,83.01
2019-01-28T07:51:32.552Z,82.82
2019-01-28T07:54:03.327Z,83.00
2019-01-28T07:56:33.752Z,82.90
2019-01-28T07:59:04.225Z,82.29
2019-01-28T08:01:34.653Z,81.19
2019-01-28T08:04:05.334Z,82.42
2019-01-28T08:06:35.787Z,82.44
2019-01-28T08:09:08.962Z,81.82
2019-01-28T08:11:39.411Z,82.45
2019-01-28T08:14:09.830Z,82.13
2019-01-28T08:16:40.292Z,82.17
2019-01-28T08:19:10.711Z,83.35
2019-01-28T08:21:41.575Z,82.51
2019-01-28T08:24:12.026Z,82.51
2019-01-28T08:26:43.110Z,82.83
2019-01-28T08:29:13.960Z,83.13
2019-01-28T08:31:44.379Z,82.97
2019-01-28T08:34:14.811Z,82.13
2019-01-28T08:36:45.262Z,82.91
2019-01-28T08:39:15.684Z,82.96
2019-01-28T08:41:46.154Z,83.37
2019-01-28T08:44:16.573Z,83.49
2019-01-28T08:46:46.993Z,83.54
2019-01-28T08:49:17.622Z,83.85
2019-01-28T08:51:48.039Z,84.65
2019-01-28T08:54:18.515Z,84.54
2019-01-28T08:56:48.938Z,84.86
2019-01-28T08:59:19.355Z,84.83
2019-01-28T09:01:49.812Z,85.20
2019-01-28T09:04:20.236Z,84.69
2019-01-28T09:06:50.727Z,84.28
2019-01-28T09:09:21.302Z,84.42
2019-01-28T09:11:51.928Z,84.14
2019-01-28T09:14:22.373Z,84.12
2019-01-28T09:16:52.797Z,83.71
2019-01-28T09:19:23.268Z,83.42
2019-01-28T09:21:53.694Z,83.23
2019-01-28T09:24:24.531Z,82.32
2019-01-28T09:26:54.985Z,82.75
2019-01-28T09:29:25.403Z,81.46
2019-01-28T09:31:55.872Z,81.61
2019-01-28T09:34:26.447Z,81.89
2019-01-28T09:36:57.037Z,80.20
2019-01-28T09:39:27.484Z,80.86
2019-01-28T09:41:57.905Z,80.66
2019-01-28T09:44:28.403Z,80.64
2019-01-28T09:46:58.824Z,81.35
2019-01-28T09:49:29.248Z,80.59
2019-01-28T09:51:59.699Z,81.13
2019-01-28T09:54:30.223Z,80.35
2019-01-28T09:57:01.075Z,81.32
2019-01-28T09:59:31.500Z,81.17
2019-01-28T10:02:01.926Z,81.70
2019-01-28T10:04:32.365Z,82.72
2019-01-28T10:07:03.162Z,83.11
2019-01-28T10:09:33.643Z,83.49
2019-01-28T10:12:04.387Z,83.56
2019-01-28T10:14:35.176Z,84.05
2019-01-28T10:17:05.911Z,84.20
2019-01-28T10:19:36.711Z,84.89
2019-01-28T10:22:07.523Z,84.92
2019-01-28T10:24:37.948Z,83.89
2019-01-28T10:27:08.416Z,84.51
2019-01-28T10:29:38.819Z,84.69
2019-01-28T10:32:09.691Z,84.79
2019-01-28T10:34:40.111Z,84.97
2019-01-28T10:37:10.635Z,85.37
2019-01-28T10:39:41.080Z,84.88
2019-01-28T10:42:12.180Z,85.41
2019-01-28T10:44:43.016Z,84.61
2019-01-28T10:47:13.471Z,84.34
2019-01-28T10:49:43.941Z,85.00
2019-01-28T10:52:14.367Z,85.31
2019-01-28T10:54:45.138Z,84.42
2019-01-28T10:57:15.580Z,84.07
2019-01-28T10:59:45.994Z,84.66
2019-01-28T11:02:16.459Z,84.64
2019-01-28T11:04:46.882Z,84.58
2019-01-28T11:07:17.331Z,83.82
2019-01-28T11:09:47.791Z,84.08
2019-01-28T11:12:18.212Z,83.12
2019-01-28T11:14:48.707Z,84.07
2019-01-28T11:17:19.106Z,82.44
2019-01-28T11:19:50.588Z,82.60
2019-01-28T11:22:21.015Z,83.04
2019-01-28T11:24:51.412Z,83.18
2019-01-28T11:27:21.883Z,84.00
2019-01-28T11:29:52.317Z,84.02
2019-01-28T11:32:23.274Z,84.47
2019-01-28T11:34:53.803Z,84.92
2019-01-28T11:37:24.184Z,85.16
2019-01-28T11:39:54.730Z,85.02
2019-01-28T11:42:25.162Z,85.34
2019-01-28T11:44:55.565Z,85.04
2019-01-28T11:47:26.770Z,84.56
2019-01-28T11:49:57.701Z,84.84
2019-01-28T11:52:28.193Z,84.90
2019-01-28T11:54:58.612Z,85.29
2019-01-28T11:57:29.082Z,85.02
2019-01-28T11:59:59.623Z,85.19
2019-01-28T12:02:34.508Z,85.66
2019-01-28T12:05:02.741Z,85.94
2019-01-28T12:07:33.186Z,86.00
2019-01-28T12:10:05.604Z,85.83
2019-01-28T12:12:36.023Z,85.91
2019-01-28T12:15:08.007Z,85.43
2019-01-28T12:17:38.429Z,85.68
2019-01-28T12:20:09.746Z,85.44
2019-01-28T12:22:40.598Z,85.85
2019-01-28T12:25:12.328Z,85.85
2019-01-28T12:27:43.387Z,85.85
2019-01-28T12:30:23.290Z,86.10
2019-01-28T12:32:53.766Z,86.12
2019-01-28T12:35:24.297Z,86.42
2019-01-28T12:37:54.727Z,85.99
2019-01-28T12:40:26.271Z,85.07
2019-01-28T12:42:56.802Z,85.58
2019-01-28T12:45:27.687Z,85.79
2019-01-28T12:47:58.122Z,85.98
2019-01-28T12:50:28.748Z,86.36
2019-01-28T12:52:59.210Z,86.01
2019-01-28T12:55:30.680Z,86.37
2019-01-28T12:58:01.759Z,86.34
2019-01-28T13:00:40.099Z,86.18
2019-01-28T13:03:11.716Z,85.63
2019-01-28T13:05:42.188Z,85.73
2019-01-28T13:08:12.638Z,85.74
2019-01-28T13:10:43.107Z,85.53
2019-01-28T13:13:13.625Z,85.41
2019-01-28T13:15:44.092Z,85.41
2019-01-28T13:18:14.526Z,85.59
2019-01-28T13:20:44.944Z,85.76
2019-01-28T13:23:15.391Z,85.43
2019-01-28T13:25:45.819Z,85.82
2019-01-28T13:28:16.306Z,86.33
2019-01-28T13:30:46.736Z,86.11
2019-01-28T13:33:18.062Z,86.62
2019-01-28T13:35:48.522Z,87.16
2019-01-28T13:38:18.938Z,87.23
2019-01-28T13:40:49.858Z,86.74
2019-01-28T13:43:20.284Z,87.09
2019-01-28T13:45:50.705Z,87.40
2019-01-28T13:48:21.239Z,87.33
2019-01-28T13:50:51.669Z,87.96
2019-01-28T13:53:22.242Z,87.64
2019-01-28T13:55:52.676Z,88.08
2019-01-28T13:58:23.099Z,88.25
2019-01-28T14:00:53.543Z,88.67
2019-01-28T14:03:23.981Z,88.58
2019-01-28T14:05:54.579Z,88.62
2019-01-28T14:08:25.002Z,89.07
2019-01-28T14:10:55.425Z,89.04
2019-01-28T14:13:25.875Z,88.74
2019-01-28T14:15:56.630Z,88.62
2019-01-28T14:18:27.107Z,89.28
2019-01-28T14:21:00.874Z,89.52
2019-01-28T14:23:31.471Z,89.61
2019-01-28T14:26:02.362Z,89.74
2019-01-28T14:28:32.784Z,89.99
2019-01-28T14:31:03.286Z,89.91
2019-01-28T14:33:34.081Z,90.46
2019-01-28T14:36:05.073Z,90.29
2019-01-28T14:38:35.507Z,90.13
2019-01-28T14:41:05.934Z,90.37
2019-01-28T14:43:36.390Z,90.04
2019-01-28T14:46:06.819Z,90.05
2019-01-28T14:48:37.290Z,89.93
2019-01-28T14:51:07.714Z,90.68
2019-01-28T14:53:38.139Z,90.80
2019-01-28T14:56:08.669Z,90.84
2019-01-28T14:58:39.464Z,91.37
2019-01-28T15:01:10.280Z,91.78
2019-01-28T15:03:41.034Z,91.72
2019-01-28T15:06:11.572Z,91.85
2019-01-28T15:08:42.363Z,91.37
2019-01-28T15:11:13.258Z,91.55
2019-01-28T15:13:43.720Z,91.41
2019-01-28T15:16:14.935Z,91.41
2019-01-28T15:18:45.395Z,91.42
2019-01-28T15:21:15.807Z,91.43
2019-01-28T15:23:46.279Z,91.30
2019-01-28T15:26:17.159Z,91.25
2019-01-28T15:28:47.682Z,91.34
2019-01-28T15:31:18.126Z,91.17
2019-01-28T15:33:48.546Z,91.12
2019-01-28T15:36:19.012Z,91.55
2019-01-28T15:38:49.465Z,91.79
2019-01-28T15:41:19.892Z,91.95
2019-01-28T15:43:50.353Z,92.14
2019-01-28T15:46:20.781Z,92.24
2019-01-28T15:48:51.262Z,92.60
2019-01-28T15:51:21.958Z,92.86
2019-01-28T15:53:52.757Z,93.47
2019-01-28T15:56:23.217Z,93.55
2019-01-28T15:58:53.711Z,93.41
2019-01-28T16:01:24.216Z,93.15
2019-01-28T16:03:55.037Z,93.75
2019-01-28T16:06:25.499Z,93.87
2019-01-28T16:08:55.970Z,93.84
2019-01-28T16:11:26.410Z,93.83
2019-01-28T16:13:56.906Z,93.92
2019-01-28T16:16:27.445Z,94.21
2019-01-28T16:18:57.880Z,94.42
2019-01-28T16:21:28.718Z,95.06
2019-01-28T16:23:59.156Z,95.25
2019-01-28T16:26:29.669Z,95.14
2019-01-28T16:29:00.117Z,95.20
2019-01-28T16:31:30.558Z,95.30
2019-01-28T16:34:01.044Z,95.43
2019-01-28T16:36:31.573Z,95.23
2019-01-28T16:39:02.049Z,95.17
2019-01-28T16:41:32.501Z,94.98
2019-01-28T16:44:04.704Z,94.77
2019-01-28T16:46:35.190Z,94.60
2019-01-28T16:49:06.002Z,94.23
2019-01-28T16:51:36.437Z,94.01
2019-01-28T16:54:06.930Z,94.29
2019-01-28T16:56:37.366Z,94.16
2019-01-28T16:59:07.810Z,94.66
2019-01-28T17:01:38.305Z,94.77
2019-01-28T17:04:09.117Z,94.71
2019-01-28T17:06:39.594Z,94.93
2019-01-28T17:09:11.040Z,95.22
2019-01-28T17:11:41.492Z,95.01
2019-01-28T17:14:11.918Z,95.24
2019-01-28T17:16:42.672Z,94.84
2019-01-28T17:19:13.111Z,94.97
2019-01-28T17:21:43.656Z,94.84
2019-01-28T17:24:14.143Z,94.96
2019-01-28T17:26:45.682Z,94.66
2019-01-28T17:29:16.622Z,94.42
2019-01-28T17:31:47.108Z,94.72
2019-01-28T17:34:17.934Z,94.79
2019-01-28T17:36:48.772Z,94.58
2019-01-28T17:39:20.329Z,94.17
2019-01-28T17:41:50.783Z,93.73
2019-01-28T17:44:21.214Z,93.62
2019-01-28T17:46:51.698Z,93.37
2019-01-28T17:49:23.494Z,93.35
2019-01-28T17:51:53.921Z,93.65
2019-01-28T17:54:24.442Z,93.34
2019-01-28T17:56:54.923Z,93.13
2019-01-28T17:59:25.731Z,93.50
2019-01-28T18:01:56.232Z,93.64
2019-01-28T18:04:26.670Z,93.78
2019-01-28T18:06:58.214Z,93.87
2019-01-28T18:09:29.055Z,93.99
2019-01-28T18:12:00.843Z,93.87
2019-01-28T18:14:31.264Z,93.89
2019-01-28T18:17:01.744Z,93.66
2019-01-28T18:19:32.994Z,93.74
2019-01-28T18:22:03.419Z,93.77
2019-01-28T18:24:33.893Z,93.48
2019-01-28T18:27:05.251Z,93.36
2019-01-28T18:29:35.675Z,93.62
2019-01-28T18:32:06.360Z,93.41
2019-01-28T18:34:39.434Z,93.57
2019-01-28T18:37:11.795Z,93.28
2019-01-28T18:39:42.307Z,93.33
2019-01-28T18:42:12.768Z,93.84
2019-01-28T18:44:45.573Z,93.97
2019-01-28T18:47:16.072Z,93.54
2019-01-28T18:49:46.623Z,93.00
2019-01-28T18:52:17.439Z,93.41
2019-01-28T18:54:48.054Z,93.70
2019-01-28T18:57:18.503Z,94.05
2019-01-28T18:59:49.382Z,94.16
2019-01-28T19:02:19.874Z,94.06
2019-01-28T19:04:50.337Z,94.23
2019-01-28T19:07:39.311Z,93.99
2019-01-28T19:10:36.991Z,94.33
2019-01-28T19:13:12.695Z,94.36
2019-01-28T19:16:07.903Z,94.60
2019-01-28T19:18:47.651Z,94.93
2019-01-28T19:21:27.831Z,94.75
2019-01-28T19:24:00.239Z,94.30
2019-01-28T19:26:30.680Z,94.20
2019-01-28T19:29:02.233Z,93.86
2019-01-28T19:31:33.855Z,93.33
2019-01-28T19:34:04.803Z,93.14
2019-01-28T19:36:35.239Z,93.04
2019-01-28T19:39:08.743Z,92.69
2019-01-28T19:41:40.799Z,92.58
2019-01-28T19:44:11.296Z,92.31
2019-01-28T19:46:42.159Z,92.45
2019-01-28T19:49:12.925Z,92.47
2019-01-28T19:51:43.347Z,92.11
2019-01-28T19:54:14.039Z,91.89
2019-01-28T19:56:44.607Z,91.96
2019-01-28T19:59:15.351Z,92.28
2019-01-28T20:01:45.832Z,92.73
2019-01-28T20:04:16.266Z,92.73
2019-01-28T20:06:46.747Z,93.19
2019-01-28T20:09:19.227Z,93.49
2019-01-28T20:11:49.660Z,93.88
2019-01-28T20:14:22.258Z,93.83
2019-01-28T20:16:55.637Z,93.70
2019-01-28T20:19:27.019Z,93.75
2019-01-28T20:21:57.457Z,93.89
2019-01-28T20:24:27.906Z,93.98
2019-01-28T20:26:58.376Z,94.16
2019-01-28T20:29:29.461Z,93.99
2019-01-28T20:31:59.926Z,94.08
2019-01-28T20:34:30.383Z,94.28
2019-01-28T20:37:01.072Z,93.91
2019-01-28T20:39:31.787Z,94.26
2019-01-28T20:42:02.198Z,94.28
2019-01-28T20:44:32.720Z,94.40
2019-01-28T20:47:03.547Z,94.43
2019-01-28T20:49:34.043Z,94.66
2019-01-28T20:52:05.007Z,94.70
2019-01-28T20:54:37.458Z,94.84
2019-01-28T20:57:07.930Z,94.78
2019-01-28T20:59:38.350Z,94.73
2019-01-28T21:02:08.856Z,94.62
2019-01-28T21:04:39.647Z,94.72
2019-01-28T21:07:10.147Z,94.63
2019-01-28T21:09:40.623Z,94.68
2019-01-28T21:12:11.829Z,94.75
2019-01-28T21:14:44.330Z,95.11
2019-01-28T21:17:15.199Z,95.06
2019-01-28T21:19:45.592Z,94.68
2019-01-28T21:22:16.353Z,94.60
2019-01-28T21:24:46.775Z,94.78
2019-01-28T21:30:49.298Z,94.84
2019-01-28T21:33:20.505Z,94.88
2019-01-28T21:36:08.564Z,94.77
2019-01-28T21:38:45.696Z,94.87
2019-01-28T21:41:16.151Z,95.04
2019-01-28T21:43:46.597Z,95.23
2019-01-28T21:46:18.145Z,95.01
2019-01-28T21:48:49.622Z,94.69
2019-01-28T21:51:20.502Z,94.21
2019-01-28T21:53:50.942Z,94.05
2019-01-28T21:56:21.696Z,94.38
2019-01-28T21:58:52.536Z,94.47
2019-01-28T22:01:23.260Z,93.97
2019-01-28T22:03:54.222Z,93.63
2019-01-28T22:06:24.662Z,93.34
2019-01-28T22:08:55.502Z,93.38
2019-01-28T22:11:28.057Z,93.05
2019-01-28T22:13:58.414Z,92.89
2019-01-28T22:16:28.897Z,93.17
2019-01-28T22:18:59.701Z,93.22
2019-01-28T22:21:30.137Z,92.79
2019-01-28T22:24:00.591Z,92.64
2019-01-28T22:26:31.352Z,92.60
2019-01-28T22:29:02.168Z,92.09
2019-01-28T22:31:32.596Z,91.94
2019-01-28T22:34:03.019Z,90.97
2019-01-28T22:36:33.913Z,90.48
2019-01-28T22:39:06.037Z,90.32
2019-01-28T22:41:36.505Z,90.21
2019-01-28T22:44:07.034Z,90.20
2019-01-28T22:46:37.467Z,90.03
2019-01-28T22:49:07.920Z,89.76
2019-01-28T22:51:38.753Z,89.45
2019-01-28T22:54:09.240Z,89.32
2019-01-28T22:56:39.679Z,89.58
2019-01-28T22:59:10.399Z,89.48
2019-01-28T23:01:41.676Z,89.47
2019-01-28T23:04:12.373Z,89.55
2019-01-28T23:06:43.230Z,89.55
2019-01-28T23:09:14.082Z,89.32
2019-01-28T23:11:44.516Z,89.36
2019-01-28T23:14:15.460Z,89.35
2019-01-28T23:16:46.604Z,89.49
2019-01-28T23:19:17.480Z,89.45
2019-01-28T23:21:47.912Z,89.42
2019-01-28T23:24:18.345Z,88.70
2019-01-28T23:26:48.794Z,88.47
2019-01-28T23:29:19.220Z,88.64
2019-01-28T23:31:50.060Z,88.02
2019-01-28T23:34:20.494Z,88.03
2019-01-28T23:36:50.922Z,87.76
2019-01-28T23:39:21.376Z,88.61
2019-01-28T23:41:51.808Z,88.27
2019-01-28T23:44:22.660Z,88.47
2019-01-28T23:46:53.156Z,88.86
2019-01-28T23:49:24.527Z,88.82
2019-01-28T23:51:54.992Z,88.56
2019-01-28T23:54:25.436Z,88.83
2019-01-28T23:56:55.898Z,88.45
2019-01-28T23:59:26.689Z,88.59
